KHPT/HPT METAR and TAF weather

Enter ICAO airport designator
Station Type Date Time Source
KHPT METAR 2020/08/15 16:15 UTC NOAA

KHPT 151615Z AUTO 36011G15KT 10SM CLR 22/12 A3008 RMK AO2


Station Type Date Time Source
KHPT Decoded METAR 2020/08/15 16:15 UTC NOAA

Station name not available
Aug 15, 2020 - 12:15 PM EDT / 2020.08.15 1615 UTC
Wind: from the N (360 degrees) at 13 MPH (11 KT) gusting to 17 MPH (15 KT):0
Visibility: 10 mile(s):0
Sky conditions: clear
Temperature: 71 F (22 C)
Dew Point: 53 F (12 C)
Relative Humidity: 53%
Pressure (altimeter): 30.08 in. Hg (1018 hPa)
ob: KHPT 151615Z AUTO 36011G15KT 10SM CLR 22/12 A3008 RMK AO2
cycle: 16

Station Type Date Time Source
KHPT TAF UTC NOAA

Error!

Example: see airport list